createdAt,value
2022-12-18T00:01:34.231Z,-2.53
2022-12-18T00:04:09.192Z,-2.54
2022-12-18T00:06:38.390Z,-2.53
2022-12-18T00:09:08.084Z,-2.49
2022-12-18T00:11:36.778Z,-2.48
2022-12-18T00:14:05.115Z,-2.44
2022-12-18T00:16:36.261Z,-2.74
2022-12-18T00:19:05.565Z,-2.51
2022-12-18T00:21:34.809Z,-2.52
2022-12-18T00:24:03.460Z,-2.95
2022-12-18T00:26:35.929Z,-2.49
2022-12-18T00:29:07.871Z,-2.49
2022-12-18T00:31:37.260Z,-2.46
2022-12-18T00:34:06.136Z,-2.50
2022-12-18T00:36:36.527Z,-2.48
2022-12-18T00:39:07.480Z,-2.70
2022-12-18T00:42:09.135Z,-4.38
2022-12-18T00:44:37.466Z,-2.73
2022-12-18T00:47:05.950Z,-2.97
2022-12-18T00:49:35.146Z,-2.58
2022-12-18T00:52:03.832Z,-2.57
2022-12-18T00:54:32.162Z,-2.58
2022-12-18T00:57:01.871Z,-2.56
2022-12-18T00:59:31.027Z,-3.23
2022-12-18T01:01:59.820Z,-2.55
2022-12-18T01:04:28.451Z,-2.54
2022-12-18T01:06:56.819Z,-2.56
2022-12-18T01:09:25.112Z,-2.56
2022-12-18T01:11:54.506Z,-2.53
2022-12-18T01:14:24.141Z,-2.53
2022-12-18T01:16:52.582Z,-2.54
2022-12-18T01:19:20.946Z,-2.54
2022-12-18T01:21:49.659Z,-2.45
2022-12-18T01:24:17.984Z,-2.49
2022-12-18T01:26:46.312Z,-2.34
2022-12-18T01:29:16.329Z,-2.46
2022-12-18T01:31:46.307Z,-2.33
2022-12-18T01:34:15.223Z,-2.38
2022-12-18T01:36:43.714Z,-2.43
2022-12-18T01:39:16.814Z,-2.54
2022-12-18T01:42:03.539Z,-2.73
2022-12-18T01:45:03.856Z,-3.01
2022-12-18T01:47:40.259Z,-2.57
2022-12-18T01:50:13.707Z,-2.55
2022-12-18T01:52:45.806Z,-2.66
2022-12-18T01:55:18.964Z,-2.70
2022-12-18T01:57:49.257Z,-2.70
2022-12-18T02:00:23.539Z,-2.46
2022-12-18T02:02:55.696Z,-2.70
2022-12-18T02:05:42.190Z,-2.72
2022-12-18T02:08:18.158Z,-2.62
2022-12-18T02:10:59.015Z,-3.58
2022-12-18T02:13:38.936Z,-2.81
2022-12-18T02:16:18.061Z,-2.75
2022-12-18T02:18:56.546Z,-2.67
2022-12-18T02:21:36.832Z,-2.97
2022-12-18T02:24:26.395Z,-2.73
2022-12-18T02:27:01.934Z,-2.92
2022-12-18T02:29:39.145Z,-2.79
2022-12-18T02:32:16.264Z,-2.88
2022-12-18T02:34:48.158Z,-2.83
2022-12-18T02:37:21.384Z,-2.90
2022-12-18T02:39:56.852Z,-2.79
2022-12-18T02:42:30.056Z,-2.83
2022-12-18T02:44:58.541Z,-3.18
2022-12-18T02:47:34.918Z,-2.76
2022-12-18T02:50:16.067Z,-2.90
2022-12-18T02:52:57.880Z,-2.98
2022-12-18T02:55:45.748Z,-2.79
2022-12-18T02:58:28.643Z,-2.77
2022-12-18T03:01:12.406Z,-2.99
2022-12-18T03:03:46.674Z,-3.05
2022-12-18T03:06:25.485Z,-2.80
2022-12-18T03:09:01.564Z,-2.73
2022-12-18T03:11:52.788Z,-2.79
2022-12-18T03:14:27.753Z,-2.79
2022-12-18T03:17:03.866Z,-2.75
2022-12-18T03:19:35.336Z,-2.93
2022-12-18T03:22:09.518Z,-3.22
2022-12-18T03:24:51.349Z,-2.77
2022-12-18T03:27:24.625Z,-2.64
2022-12-18T03:30:08.415Z,-2.62
2022-12-18T03:32:45.224Z,-2.64
2022-12-18T03:35:21.846Z,-2.71
2022-12-18T03:37:50.709Z,-2.59
2022-12-18T03:40:22.662Z,-2.64
2022-12-18T03:43:01.478Z,-3.23
2022-12-18T03:45:40.068Z,-2.82
2022-12-18T03:48:18.249Z,-3.34
2022-12-18T03:50:56.222Z,-2.71
2022-12-18T03:53:38.531Z,-2.68
2022-12-18T03:56:09.507Z,-2.93
2022-12-18T03:58:45.202Z,-2.91
2022-12-18T04:01:28.901Z,-2.77
2022-12-18T04:04:01.884Z,-2.74
2022-12-18T04:06:34.659Z,-2.85
2022-12-18T04:09:03.396Z,-2.90
2022-12-18T04:11:34.132Z,-3.12
2022-12-18T04:14:07.315Z,-3.55
2022-12-18T04:16:38.265Z,-3.39
2022-12-18T04:19:09.797Z,-3.01
2022-12-18T04:21:42.299Z,-2.99
2022-12-18T04:24:12.898Z,-2.91
2022-12-18T04:26:47.809Z,-2.87
2022-12-18T04:29:23.882Z,-2.75
2022-12-18T04:31:53.964Z,-2.73
2022-12-18T04:34:23.229Z,-2.93
2022-12-18T04:36:54.940Z,-2.77
2022-12-18T04:39:25.023Z,-2.79
2022-12-18T04:41:56.830Z,-2.77
2022-12-18T04:44:25.602Z,-2.83
2022-12-18T04:46:55.248Z,-3.08
2022-12-18T04:49:25.504Z,-2.82
2022-12-18T04:51:54.337Z,-2.75
2022-12-18T04:54:22.732Z,-2.99
2022-12-18T04:56:51.176Z,-2.83
2022-12-18T04:59:19.500Z,-2.79
2022-12-18T05:01:47.983Z,-2.84
2022-12-18T05:04:17.836Z,-2.89
2022-12-18T05:06:46.471Z,-2.93
2022-12-18T05:09:14.921Z,-2.94
2022-12-18T05:11:43.250Z,-2.84
2022-12-18T05:14:11.542Z,-3.28
2022-12-18T05:16:39.860Z,-2.77
2022-12-18T05:19:08.441Z,-2.89
2022-12-18T05:21:38.067Z,-2.87
2022-12-18T05:24:07.469Z,-3.03
2022-12-18T05:26:35.777Z,-3.91
2022-12-18T05:29:04.105Z,-2.90
2022-12-18T05:31:37.475Z,-3.26
2022-12-18T05:34:08.034Z,-3.16
2022-12-18T05:36:37.678Z,-3.48
2022-12-18T05:39:06.307Z,-3.31
2022-12-18T05:41:34.817Z,-2.93
2022-12-18T05:44:03.216Z,-3.32
2022-12-18T05:46:31.581Z,-2.99
2022-12-18T05:49:02.866Z,-2.80
2022-12-18T05:51:32.415Z,-2.72
2022-12-18T05:54:02.006Z,-2.69
2022-12-18T05:56:30.357Z,-3.10
2022-12-18T05:58:58.589Z,-2.81
2022-12-18T06:01:28.737Z,-3.29
2022-12-18T06:03:57.807Z,-2.76
2022-12-18T06:06:29.505Z,-2.68
2022-12-18T06:08:58.638Z,-2.60
2022-12-18T06:11:29.433Z,-3.38
2022-12-18T06:14:00.336Z,-2.76
2022-12-18T06:16:31.065Z,-2.76
2022-12-18T06:19:00.787Z,-2.77
2022-12-18T06:21:31.008Z,-3.16
2022-12-18T06:24:01.737Z,-2.92
2022-12-18T06:26:31.443Z,-2.80
2022-12-18T06:29:00.118Z,-2.78
2022-12-18T06:31:28.578Z,-2.73
2022-12-18T06:33:57.538Z,-2.83
2022-12-18T06:36:26.200Z,-2.64
2022-12-18T06:38:58.218Z,-2.67
2022-12-18T06:41:26.584Z,-2.65
2022-12-18T06:43:59.794Z,-2.65
2022-12-18T06:46:29.651Z,-2.64
2022-12-18T06:48:57.909Z,-3.41
2022-12-18T06:51:27.049Z,-2.62
2022-12-18T06:53:55.338Z,-2.60
2022-12-18T06:56:23.641Z,-3.88
2022-12-18T06:58:51.954Z,-3.00
2022-12-18T07:01:21.884Z,-2.71
2022-12-18T07:03:55.414Z,-2.85
2022-12-18T07:06:26.693Z,-2.56
2022-12-18T07:08:56.550Z,-2.62
2022-12-18T07:11:25.424Z,-2.65
2022-12-18T07:13:55.434Z,-2.64
2022-12-18T07:16:25.995Z,-2.63
2022-12-18T07:18:55.003Z,-2.73
2022-12-18T07:21:24.444Z,-2.55
2022-12-18T07:23:53.224Z,-2.54
2022-12-18T07:26:23.968Z,-2.59
2022-12-18T07:28:58.490Z,-2.48
2022-12-18T07:31:29.611Z,-2.50
2022-12-18T07:33:58.079Z,-2.61
2022-12-18T07:36:26.420Z,-3.03
2022-12-18T07:38:54.766Z,-2.54
2022-12-18T07:41:23.445Z,-2.61
2022-12-18T07:43:52.235Z,-2.47
2022-12-18T07:46:21.144Z,-2.74
2022-12-18T07:48:50.967Z,-2.43
2022-12-18T07:51:20.763Z,-2.88
2022-12-18T07:53:52.407Z,-2.45
2022-12-18T07:56:27.580Z,-2.43
2022-12-18T07:58:57.153Z,-2.43
2022-12-18T08:01:25.894Z,-2.57
2022-12-18T08:03:56.030Z,-2.35
2022-12-18T08:06:24.893Z,-2.34
2022-12-18T08:08:54.931Z,-2.52
2022-12-18T08:11:25.760Z,-2.38
2022-12-18T08:13:55.129Z,-2.37
2022-12-18T08:16:24.542Z,-2.39
2022-12-18T08:18:55.919Z,-2.36
2022-12-18T08:21:27.160Z,-2.34
2022-12-18T08:23:57.917Z,-2.41
2022-12-18T08:26:29.727Z,-2.59
2022-12-18T08:29:01.142Z,-2.33
2022-12-18T08:31:31.943Z,-2.44
2022-12-18T08:34:02.145Z,-2.24
2022-12-18T08:36:30.767Z,-2.25
2022-12-18T08:38:59.351Z,-2.23
2022-12-18T08:41:28.718Z,-2.41
2022-12-18T08:44:14.586Z,-2.40
2022-12-18T08:46:45.481Z,-2.13
2022-12-18T08:49:15.557Z,-2.06
2022-12-18T08:51:44.160Z,-2.09
2022-12-18T08:54:14.908Z,-2.63
2022-12-18T08:56:43.520Z,-2.74
2022-12-18T08:59:17.514Z,-2.61
2022-12-18T09:01:49.412Z,-2.46
2022-12-18T09:04:20.416Z,-2.51
2022-12-18T09:06:49.077Z,-2.03
2022-12-18T09:09:17.699Z,-2.02
2022-12-18T09:11:46.429Z,-2.50
2022-12-18T09:14:14.823Z,-2.11
2022-12-18T09:16:43.972Z,-2.07
2022-12-18T09:19:13.030Z,-1.96
2022-12-18T09:21:47.703Z,-1.94
2022-12-18T09:24:17.968Z,-1.94
2022-12-18T09:26:47.531Z,-2.42
2022-12-18T09:29:19.017Z,-1.93
2022-12-18T09:31:47.983Z,-1.90
2022-12-18T09:34:16.638Z,-1.76
2022-12-18T09:36:46.327Z,-1.77
2022-12-18T09:39:15.996Z,-1.78
2022-12-18T09:41:50.911Z,-1.81
2022-12-18T09:44:27.840Z,-1.93
2022-12-18T09:47:11.644Z,-2.12
2022-12-18T09:49:45.802Z,-1.88
2022-12-18T09:52:28.555Z,-1.95
2022-12-18T09:55:04.161Z,-1.82
2022-12-18T09:57:39.528Z,-1.76
2022-12-18T10:00:22.080Z,-2.15
2022-12-18T10:02:52.519Z,-1.87
2022-12-18T10:05:36.218Z,-1.87
2022-12-18T10:08:15.396Z,-1.77
2022-12-18T10:10:53.118Z,-1.81
2022-12-18T10:13:33.740Z,-1.74
2022-12-18T10:16:14.830Z,-1.96
2022-12-18T10:19:26.244Z,-1.75
2022-12-18T10:22:09.947Z,-1.96
2022-12-18T10:24:47.666Z,-2.02
2022-12-18T10:27:20.087Z,-1.88
2022-12-18T10:29:49.707Z,-1.53
2022-12-18T10:32:20.600Z,-1.91
2022-12-18T10:34:56.671Z,-1.46
2022-12-18T10:37:31.891Z,-1.41
2022-12-18T10:40:21.800Z,-1.69
2022-12-18T10:43:07.300Z,-1.51
2022-12-18T10:45:36.077Z,-1.69
2022-12-18T10:48:06.131Z,-1.47
2022-12-18T10:51:09.875Z,-1.88
2022-12-18T10:53:29.648Z,-1.53
2022-12-18T10:56:01.829Z,-1.37
2022-12-18T10:58:34.259Z,-1.35
2022-12-18T11:01:11.053Z,-1.30
2022-12-18T11:03:43.299Z,-1.31
2022-12-18T11:06:15.546Z,-1.21
2022-12-18T11:08:58.634Z,-1.16
2022-12-18T11:11:28.873Z,-1.09
2022-12-18T11:14:04.447Z,-1.42
2022-12-18T11:17:03.158Z,-1.16
2022-12-18T11:19:38.873Z,-1.55
2022-12-18T11:22:25.363Z,-1.91
2022-12-18T11:25:30.791Z,-1.72
2022-12-18T11:27:54.971Z,-2.23
2022-12-18T11:30:28.025Z,-2.02
2022-12-18T11:33:03.999Z,-2.01
2022-12-18T11:35:49.902Z,-1.92
2022-12-18T11:38:26.395Z,-1.73
2022-12-18T11:41:02.568Z,-1.83
2022-12-18T11:43:45.899Z,-2.07
2022-12-18T11:46:20.948Z,-1.92
2022-12-18T11:49:01.016Z,-2.37
2022-12-18T11:51:37.431Z,-1.81
2022-12-18T11:54:15.381Z,-2.72
2022-12-18T11:56:51.427Z,-1.81
2022-12-18T11:59:39.843Z,-2.11
2022-12-18T12:02:36.191Z,-1.55
2022-12-18T12:05:41.588Z,-1.53
2022-12-18T12:08:22.122Z,-2.23
2022-12-18T12:11:05.123Z,-2.14
2022-12-18T12:13:52.610Z,-1.83
2022-12-18T12:16:34.277Z,-2.17
2022-12-18T12:19:29.149Z,-1.77
2022-12-18T12:22:11.416Z,-1.67
2022-12-18T12:24:58.276Z,-1.73
2022-12-18T12:27:41.649Z,-1.67
2022-12-18T12:30:15.698Z,-1.68
2022-12-18T12:33:16.535Z,-1.68
2022-12-18T12:35:57.405Z,-1.45
2022-12-18T12:38:34.327Z,-1.32
2022-12-18T12:41:28.371Z,-1.59
2022-12-18T12:43:59.955Z,-1.56
2022-12-18T12:46:33.645Z,-1.38
2022-12-18T12:49:10.767Z,-1.52
2022-12-18T12:51:43.677Z,-1.72
2022-12-18T12:54:21.308Z,-2.11
2022-12-18T12:57:01.982Z,-2.83
2022-12-18T12:59:44.473Z,-2.39
2022-12-18T13:02:23.913Z,-2.47
2022-12-18T13:05:06.741Z,-2.66
2022-12-18T13:07:43.755Z,-3.08
2022-12-18T13:10:32.967Z,-3.03
2022-12-18T13:13:05.004Z,-3.51
2022-12-18T13:15:46.301Z,-4.02
2022-12-18T13:18:22.172Z,-3.35
2022-12-18T13:21:04.341Z,-3.94
2022-12-18T13:23:44.258Z,-3.94
2022-12-18T13:26:35.353Z,-3.35
2022-12-18T13:29:05.351Z,-3.26
2022-12-18T13:32:22.089Z,-3.22
2022-12-18T13:35:13.489Z,-3.44
2022-12-18T13:37:56.120Z,-3.75
2022-12-18T13:40:59.196Z,-3.57
2022-12-18T13:43:38.297Z,-3.40
2022-12-18T13:46:26.584Z,-3.38
2022-12-18T13:49:01.932Z,-3.39
2022-12-18T13:51:34.723Z,-3.45
2022-12-18T13:54:20.793Z,-4.16
2022-12-18T13:56:51.094Z,-3.29
2022-12-18T13:59:24.796Z,-3.25
2022-12-18T14:01:58.387Z,-3.34
2022-12-18T14:04:30.275Z,-3.34
2022-12-18T14:07:05.005Z,-3.43
2022-12-18T14:09:40.604Z,-3.84
2022-12-18T14:12:43.682Z,-3.40
2022-12-18T14:15:29.440Z,-3.44
2022-12-18T14:18:02.880Z,-3.50
2022-12-18T14:20:36.211Z,-3.59
2022-12-18T14:23:04.774Z,-3.66
2022-12-18T14:25:34.480Z,-4.09
2022-12-18T14:28:15.654Z,-4.06
2022-12-18T14:30:47.823Z,-3.91
2022-12-18T14:33:19.710Z,-3.80
2022-12-18T14:35:58.773Z,-4.25
2022-12-18T14:38:34.141Z,-4.23
2022-12-18T14:41:07.139Z,-4.01
2022-12-18T14:43:38.414Z,-3.99
2022-12-18T14:46:27.877Z,-4.00
2022-12-18T14:48:57.718Z,-4.02
2022-12-18T14:51:28.381Z,-4.05
2022-12-18T14:53:59.875Z,-4.08
2022-12-18T14:56:33.427Z,-4.04
2022-12-18T14:59:05.477Z,-4.31
2022-12-18T15:01:40.095Z,-4.06
2022-12-18T15:04:28.460Z,-4.04
2022-12-18T15:07:14.647Z,-3.98
2022-12-18T15:09:47.555Z,-4.22
2022-12-18T15:12:35.323Z,-4.24
2022-12-18T15:15:07.794Z,-4.09
2022-12-18T15:17:36.301Z,-4.20
2022-12-18T15:20:12.766Z,-4.63
2022-12-18T15:22:41.215Z,-4.27
2022-12-18T15:25:34.199Z,-4.23
2022-12-18T15:28:04.631Z,-5.08
2022-12-18T15:30:33.484Z,-4.39
2022-12-18T15:33:26.688Z,-4.94
2022-12-18T15:35:59.966Z,-4.52
2022-12-18T15:38:28.488Z,-4.79
2022-12-18T15:40:57.206Z,-4.90
2022-12-18T15:43:36.255Z,-5.07
2022-12-18T15:46:07.142Z,-5.09
2022-12-18T15:48:43.474Z,-5.20
2022-12-18T15:51:19.430Z,-4.78
2022-12-18T15:53:49.512Z,-4.78
2022-12-18T15:56:36.665Z,-4.83
2022-12-18T15:59:13.820Z,-4.98
2022-12-18T16:01:44.364Z,-5.54
2022-12-18T16:04:15.822Z,-5.38
2022-12-18T16:07:13.247Z,-5.40
2022-12-18T16:09:35.747Z,-5.06
2022-12-18T16:12:04.880Z,-5.28
2022-12-18T16:14:36.086Z,-5.09
2022-12-18T16:17:11.357Z,-5.43
2022-12-18T16:19:40.071Z,-5.16
2022-12-18T16:22:17.340Z,-5.13
2022-12-18T16:24:45.832Z,-5.17
2022-12-18T16:27:14.190Z,-5.60
2022-12-18T16:29:44.373Z,-5.65
2022-12-18T16:32:17.895Z,-5.53
2022-12-18T16:34:47.850Z,-5.42
2022-12-18T16:37:19.122Z,-5.43
2022-12-18T16:39:47.921Z,-5.44
2022-12-18T16:42:23.223Z,-5.63
2022-12-18T16:44:53.310Z,-5.34
2022-12-18T16:47:21.741Z,-5.27
2022-12-18T17:02:30.993Z,-5.15
2022-12-18T17:05:00.569Z,-5.13
2022-12-18T17:07:31.512Z,-5.74
2022-12-18T17:10:00.821Z,-5.12
2022-12-18T17:12:29.762Z,-5.16
2022-12-18T17:14:59.065Z,-5.20
2022-12-18T17:17:29.849Z,-5.24
2022-12-18T17:19:58.524Z,-5.26
2022-12-18T17:22:28.244Z,-5.38
2022-12-18T17:24:57.751Z,-5.61
2022-12-18T17:27:27.737Z,-5.41
2022-12-18T17:29:56.985Z,-5.50
2022-12-18T17:32:25.625Z,-6.23
2022-12-18T17:34:56.866Z,-5.84
2022-12-18T17:37:26.610Z,-5.60
2022-12-18T17:39:55.317Z,-5.86
2022-12-18T17:42:26.402Z,-5.96
2022-12-18T17:44:55.455Z,-6.04
2022-12-18T17:47:24.360Z,-5.66
2022-12-18T17:49:55.349Z,-5.68
2022-12-18T17:52:24.875Z,-5.61
2022-12-18T17:54:54.946Z,-5.58
2022-12-18T17:57:23.876Z,-5.52
2022-12-18T17:59:53.530Z,-5.51
2022-12-18T18:02:22.525Z,-5.44
2022-12-18T18:04:52.058Z,-5.35
2022-12-18T18:07:21.870Z,-6.94
2022-12-18T18:09:53.962Z,-5.15
2022-12-18T18:12:41.012Z,-5.16
2022-12-18T18:15:10.939Z,-6.19
2022-12-18T18:17:40.427Z,-5.17
2022-12-18T18:20:11.106Z,-5.16
2022-12-18T18:22:41.661Z,-5.16
2022-12-18T18:25:11.400Z,-5.18
2022-12-18T18:27:40.617Z,-5.17
2022-12-18T18:30:11.933Z,-5.15
2022-12-18T18:32:43.508Z,-5.19
2022-12-18T18:35:37.501Z,-5.16
2022-12-18T18:38:04.738Z,-6.98
2022-12-18T18:40:33.843Z,-5.16
2022-12-18T18:43:04.510Z,-5.19
2022-12-18T18:45:38.619Z,-5.19
2022-12-18T18:48:10.835Z,-5.22
2022-12-18T18:50:40.180Z,-5.21
2022-12-18T18:53:11.104Z,-7.50
2022-12-18T18:55:41.464Z,-5.22
2022-12-18T18:58:10.783Z,-5.27
2022-12-18T19:00:41.979Z,-5.24
2022-12-18T19:03:12.468Z,-5.18
2022-12-18T19:05:47.644Z,-5.11
2022-12-18T19:08:21.829Z,-5.14
2022-12-18T19:10:57.641Z,-6.81
2022-12-18T19:13:28.597Z,-5.17
2022-12-18T19:16:05.651Z,-5.40
2022-12-18T19:18:37.899Z,-6.08
2022-12-18T19:21:08.793Z,-5.80
2022-12-18T19:23:39.373Z,-6.06
2022-12-18T19:26:27.495Z,-5.68
2022-12-18T19:29:01.349Z,-5.81
2022-12-18T19:31:35.663Z,-5.32
2022-12-18T19:34:07.204Z,-5.40
2022-12-18T19:36:41.342Z,-6.02
2022-12-18T19:39:17.798Z,-5.34
2022-12-18T19:41:48.906Z,-5.41
2022-12-18T19:44:19.492Z,-5.87
2022-12-18T19:46:52.621Z,-6.01
2022-12-18T19:49:22.128Z,-5.52
2022-12-18T19:51:50.733Z,-5.51
2022-12-18T19:54:21.603Z,-5.65
2022-12-18T19:56:50.553Z,-5.31
2022-12-18T19:59:22.111Z,-5.27
2022-12-18T20:01:53.472Z,-5.40
2022-12-18T20:04:22.367Z,-6.21
2022-12-18T20:06:53.279Z,-5.15
2022-12-18T20:09:23.894Z,-5.15
2022-12-18T20:11:55.340Z,-5.13
2022-12-18T20:14:26.957Z,-5.08
2022-12-18T20:16:55.766Z,-5.05
2022-12-18T20:19:25.223Z,-5.21
2022-12-18T20:21:53.701Z,-5.34
2022-12-18T20:24:27.083Z,-4.79
2022-12-18T20:26:56.361Z,-4.73
2022-12-18T20:29:24.705Z,-4.61
2022-12-18T20:31:53.703Z,-4.57
2022-12-18T20:34:22.125Z,-5.08
2022-12-18T20:36:53.550Z,-4.51
2022-12-18T20:39:23.842Z,-4.44
2022-12-18T20:41:53.345Z,-4.38
2022-12-18T20:44:24.080Z,-4.48
2022-12-18T20:46:58.767Z,-4.28
2022-12-18T20:49:28.304Z,-4.23
2022-12-18T20:52:01.531Z,-4.21
2022-12-18T20:54:31.491Z,-4.20
2022-12-18T20:57:00.024Z,-5.56
2022-12-18T20:59:28.263Z,-4.38
2022-12-18T21:01:56.918Z,-4.09
2022-12-18T21:04:25.957Z,-4.31
2022-12-18T21:06:59.254Z,-4.00
2022-12-18T21:09:34.515Z,-4.33
2022-12-18T21:12:25.629Z,-3.87
2022-12-18T21:14:55.099Z,-3.79
2022-12-18T21:17:23.822Z,-3.75
2022-12-18T21:19:54.988Z,-3.67
2022-12-18T21:22:24.341Z,-3.83
2022-12-18T21:24:55.107Z,-3.66
2022-12-18T21:27:26.700Z,-4.08
2022-12-18T21:29:55.379Z,-3.58
2022-12-18T21:32:24.728Z,-3.67
2022-12-18T21:34:57.319Z,-4.20
2022-12-18T21:37:25.834Z,-3.57
2022-12-18T21:39:55.536Z,-3.57
2022-12-18T21:42:42.704Z,-3.56
2022-12-18T21:45:13.696Z,-3.55
2022-12-18T21:47:42.019Z,-3.56
2022-12-18T21:50:12.431Z,-3.53
2022-12-18T21:52:40.957Z,-3.51
2022-12-18T21:55:11.542Z,-3.37
2022-12-18T21:57:40.101Z,-3.99
2022-12-18T22:00:18.761Z,-3.39
2022-12-18T22:03:16.949Z,-3.37
2022-12-18T22:05:38.009Z,-3.40
2022-12-18T22:08:07.501Z,-3.41
2022-12-18T22:10:38.424Z,-3.30
2022-12-18T22:13:08.457Z,-3.38
2022-12-18T22:15:36.804Z,-3.25
2022-12-18T22:18:05.319Z,-3.29
2022-12-18T22:20:34.936Z,-3.14
2022-12-18T22:23:06.000Z,-3.11
2022-12-18T22:25:39.875Z,-3.13
2022-12-18T22:28:26.166Z,-3.16
2022-12-18T22:30:57.739Z,-3.35
2022-12-18T22:33:28.492Z,-3.40
2022-12-18T22:35:56.883Z,-3.39
2022-12-18T22:38:25.208Z,-3.25
2022-12-18T22:40:57.797Z,-3.40
2022-12-18T22:43:26.334Z,-3.39
2022-12-18T22:45:55.343Z,-3.17
2022-12-18T22:48:23.953Z,-3.26
2022-12-18T22:50:53.473Z,-3.10
2022-12-18T22:53:28.905Z,-3.09
2022-12-18T22:56:04.942Z,-3.09
2022-12-18T22:58:33.212Z,-3.10
2022-12-18T23:01:01.813Z,-3.11
2022-12-18T23:03:30.277Z,-3.11
2022-12-18T23:06:08.232Z,-3.12
2022-12-18T23:08:36.765Z,-3.13
2022-12-18T23:11:06.998Z,-3.20
2022-12-18T23:13:36.538Z,-3.22
2022-12-18T23:16:08.328Z,-3.25
2022-12-18T23:18:37.509Z,-3.59
2022-12-18T23:21:07.812Z,-3.35
2022-12-18T23:23:38.320Z,-3.40
2022-12-18T23:26:11.850Z,-3.46
2022-12-18T23:28:41.114Z,-4.27
2022-12-18T23:31:14.616Z,-4.11
2022-12-18T23:33:45.228Z,-3.65
2022-12-18T23:36:15.502Z,-4.02
2022-12-18T23:38:44.371Z,-3.76
2022-12-18T23:41:19.370Z,-3.76
2022-12-18T23:43:49.119Z,-3.82
2022-12-18T23:46:22.052Z,-3.84
2022-12-18T23:48:51.162Z,-3.89
2022-12-18T23:51:23.692Z,-4.20
2022-12-18T23:53:52.638Z,-4.28
2022-12-18T23:56:23.629Z,-4.01
2022-12-18T23:58:52.890Z,-4.04
